sensor_id;sensor_type;location;lat;lon;timestamp;P1;durP1;ratioP1;P2;durP2;ratioP2
74658;SDS011;63186;51.204;6.536;2022-11-20T00:02:19;21.50;;;12.37;;
74658;SDS011;63186;51.204;6.536;2022-11-20T00:04:44;18.30;;;11.00;;
74658;SDS011;63186;51.204;6.536;2022-11-20T00:07:09;20.27;;;11.40;;
74658;SDS011;63186;51.204;6.536;2022-11-20T00:09:34;20.00;;;11.87;;
74658;SDS011;63186;51.204;6.536;2022-11-20T00:12:00;22.30;;;11.47;;
74658;SDS011;63186;51.204;6.536;2022-11-20T00:14:25;19.90;;;10.27;;
74658;SDS011;63186;51.204;6.536;2022-11-20T00:16:50;18.57;;;10.97;;
74658;SDS011;63186;51.204;6.536;2022-11-20T00:19:15;21.23;;;12.67;;
74658;SDS011;63186;51.204;6.536;2022-11-20T00:21:41;20.30;;;10.93;;
74658;SDS011;63186;51.204;6.536;2022-11-20T00:24:08;18.97;;;10.10;;
74658;SDS011;63186;51.204;6.536;2022-11-20T00:26:34;19.50;;;11.68;;
74658;SDS011;63186;51.204;6.536;2022-11-20T00:29:00;21.67;;;12.70;;
74658;SDS011;63186;51.204;6.536;2022-11-20T00:31:26;19.70;;;11.07;;
74658;SDS011;63186;51.204;6.536;2022-11-20T00:33:52;21.55;;;11.75;;
74658;SDS011;63186;51.204;6.536;2022-11-20T00:36:19;20.83;;;12.70;;
74658;SDS011;63186;51.204;6.536;2022-11-20T00:38:46;22.63;;;12.70;;
74658;SDS011;63186;51.204;6.536;2022-11-20T00:41:12;22.27;;;11.48;;
74658;SDS011;63186;51.204;6.536;2022-11-20T00:43:39;26.13;;;14.30;;
74658;SDS011;63186;51.204;6.536;2022-11-20T00:46:06;22.58;;;13.63;;
74658;SDS011;63186;51.204;6.536;2022-11-20T00:48:34;21.75;;;13.20;;
74658;SDS011;63186;51.204;6.536;2022-11-20T00:50:59;21.67;;;12.47;;
74658;SDS011;63186;51.204;6.536;2022-11-20T00:53:25;22.27;;;11.68;;
74658;SDS011;63186;51.204;6.536;2022-11-20T00:55:54;22.48;;;12.80;;
74658;SDS011;63186;51.204;6.536;2022-11-20T00:58:22;23.23;;;12.93;;
74658;SDS011;63186;51.204;6.536;2022-11-20T01:00:48;19.80;;;11.55;;
74658;SDS011;63186;51.204;6.536;2022-11-20T01:03:14;19.80;;;11.68;;
74658;SDS011;63186;51.204;6.536;2022-11-20T01:05:40;21.48;;;12.48;;
74658;SDS011;63186;51.204;6.536;2022-11-20T01:08:06;23.33;;;12.70;;
74658;SDS011;63186;51.204;6.536;2022-11-20T01:10:31;20.70;;;11.80;;
74658;SDS011;63186;51.204;6.536;2022-11-20T01:12:56;26.10;;;13.77;;
74658;SDS011;63186;51.204;6.536;2022-11-20T01:15:40;20.33;;;12.02;;
74658;SDS011;63186;51.204;6.536;2022-11-20T01:18:05;20.60;;;12.25;;
74658;SDS011;63186;51.204;6.536;2022-11-20T01:20:34;20.37;;;11.50;;
74658;SDS011;63186;51.204;6.536;2022-11-20T01:23:00;24.52;;;12.68;;
74658;SDS011;63186;51.204;6.536;2022-11-20T01:25:26;21.42;;;14.73;;
74658;SDS011;63186;51.204;6.536;2022-11-20T01:27:51;19.57;;;11.70;;
74658;SDS011;63186;51.204;6.536;2022-11-20T01:30:17;23.63;;;12.80;;
74658;SDS011;63186;51.204;6.536;2022-11-20T01:32:42;22.77;;;12.43;;
74658;SDS011;63186;51.204;6.536;2022-11-20T01:35:07;25.50;;;13.80;;
74658;SDS011;63186;51.204;6.536;2022-11-20T01:37:34;21.27;;;13.02;;
74658;SDS011;63186;51.204;6.536;2022-11-20T01:39:59;21.73;;;12.00;;
74658;SDS011;63186;51.204;6.536;2022-11-20T01:42:25;22.00;;;12.20;;
74658;SDS011;63186;51.204;6.536;2022-11-20T01:48:11;21.30;;;12.00;;
74658;SDS011;63186;51.204;6.536;2022-11-20T01:50:37;20.75;;;11.35;;
74658;SDS011;63186;51.204;6.536;2022-11-20T01:53:04;21.75;;;12.80;;
74658;SDS011;63186;51.204;6.536;2022-11-20T01:55:36;23.55;;;12.75;;
74658;SDS011;63186;51.204;6.536;2022-11-20T01:58:06;22.48;;;11.57;;
74658;SDS011;63186;51.204;6.536;2022-11-20T02:00:33;22.95;;;12.82;;
74658;SDS011;63186;51.204;6.536;2022-11-20T02:02:59;19.90;;;12.00;;
74658;SDS011;63186;51.204;6.536;2022-11-20T02:05:31;21.67;;;12.30;;
74658;SDS011;63186;51.204;6.536;2022-11-20T02:08:00;21.27;;;13.35;;
74658;SDS011;63186;51.204;6.536;2022-11-20T02:10:28;23.50;;;14.20;;
74658;SDS011;63186;51.204;6.536;2022-11-20T02:12:54;21.42;;;11.68;;
74658;SDS011;63186;51.204;6.536;2022-11-20T02:15:38;22.17;;;12.65;;
74658;SDS011;63186;51.204;6.536;2022-11-20T02:18:04;23.77;;;14.35;;
74658;SDS011;63186;51.204;6.536;2022-11-20T02:20:30;20.40;;;12.85;;
74658;SDS011;63186;51.204;6.536;2022-11-20T02:22:57;21.20;;;12.27;;
74658;SDS011;63186;51.204;6.536;2022-11-20T02:25:28;21.25;;;12.93;;
74658;SDS011;63186;51.204;6.536;2022-11-20T02:27:57;22.20;;;12.90;;
74658;SDS011;63186;51.204;6.536;2022-11-20T02:30:22;20.30;;;11.55;;
74658;SDS011;63186;51.204;6.536;2022-11-20T02:32:47;20.80;;;10.87;;
74658;SDS011;63186;51.204;6.536;2022-11-20T02:37:44;17.58;;;10.48;;
74658;SDS011;63186;51.204;6.536;2022-11-20T02:40:12;18.30;;;10.52;;
74658;SDS011;63186;51.204;6.536;2022-11-20T02:42:38;19.77;;;11.48;;
74658;SDS011;63186;51.204;6.536;2022-11-20T02:45:04;19.30;;;12.23;;
74658;SDS011;63186;51.204;6.536;2022-11-20T02:47:29;22.73;;;12.48;;
74658;SDS011;63186;51.204;6.536;2022-11-20T02:49:55;20.60;;;11.35;;
74658;SDS011;63186;51.204;6.536;2022-11-20T02:52:20;23.17;;;12.53;;
74658;SDS011;63186;51.204;6.536;2022-11-20T02:54:46;22.07;;;11.40;;
74658;SDS011;63186;51.204;6.536;2022-11-20T02:57:11;23.40;;;13.33;;
74658;SDS011;63186;51.204;6.536;2022-11-20T02:59:36;22.90;;;12.70;;
74658;SDS011;63186;51.204;6.536;2022-11-20T03:02:01;21.93;;;11.77;;
74658;SDS011;63186;51.204;6.536;2022-11-20T03:04:27;21.20;;;11.33;;
74658;SDS011;63186;51.204;6.536;2022-11-20T03:06:52;18.70;;;10.77;;
74658;SDS011;63186;51.204;6.536;2022-11-20T03:09:17;17.03;;;11.27;;
74658;SDS011;63186;51.204;6.536;2022-11-20T03:11:42;18.03;;;10.87;;
74658;SDS011;63186;51.204;6.536;2022-11-20T03:14:08;19.80;;;10.90;;
74658;SDS011;63186;51.204;6.536;2022-11-20T03:16:33;21.58;;;11.93;;
74658;SDS011;63186;51.204;6.536;2022-11-20T03:18:58;17.73;;;10.43;;
74658;SDS011;63186;51.204;6.536;2022-11-20T03:21:24;24.35;;;13.50;;
74658;SDS011;63186;51.204;6.536;2022-11-20T03:23:50;22.92;;;12.35;;
74658;SDS011;63186;51.204;6.536;2022-11-20T03:26:19;23.60;;;14.10;;
74658;SDS011;63186;51.204;6.536;2022-11-20T03:28:48;26.20;;;12.80;;
74658;SDS011;63186;51.204;6.536;2022-11-20T03:31:15;23.98;;;16.33;;
74658;SDS011;63186;51.204;6.536;2022-11-20T03:33:41;21.30;;;12.57;;
74658;SDS011;63186;51.204;6.536;2022-11-20T03:36:09;23.80;;;12.02;;
74658;SDS011;63186;51.204;6.536;2022-11-20T03:38:36;20.67;;;12.00;;
74658;SDS011;63186;51.204;6.536;2022-11-20T03:41:04;21.30;;;12.30;;
74658;SDS011;63186;51.204;6.536;2022-11-20T03:43:30;24.40;;;12.93;;
74658;SDS011;63186;51.204;6.536;2022-11-20T03:45:56;23.08;;;13.82;;
74658;SDS011;63186;51.204;6.536;2022-11-20T03:48:21;22.60;;;13.00;;
74658;SDS011;63186;51.204;6.536;2022-11-20T03:50:47;22.73;;;12.20;;
74658;SDS011;63186;51.204;6.536;2022-11-20T03:53:13;27.30;;;14.50;;
74658;SDS011;63186;51.204;6.536;2022-11-20T03:55:39;30.77;;;15.93;;
74658;SDS011;63186;51.204;6.536;2022-11-20T03:58:04;25.02;;;14.50;;
74658;SDS011;63186;51.204;6.536;2022-11-20T04:00:29;24.87;;;13.57;;
74658;SDS011;63186;51.204;6.536;2022-11-20T04:02:57;30.53;;;14.37;;
74658;SDS011;63186;51.204;6.536;2022-11-20T04:05:23;25.77;;;14.82;;
74658;SDS011;63186;51.204;6.536;2022-11-20T04:07:49;24.95;;;14.35;;
74658;SDS011;63186;51.204;6.536;2022-11-20T04:10:14;30.07;;;16.37;;
74658;SDS011;63186;51.204;6.536;2022-11-20T04:12:39;26.60;;;15.07;;
74658;SDS011;63186;51.204;6.536;2022-11-20T04:15:04;25.90;;;15.20;;
74658;SDS011;63186;51.204;6.536;2022-11-20T04:17:30;29.17;;;16.08;;
74658;SDS011;63186;51.204;6.536;2022-11-20T04:19:55;25.43;;;14.97;;
74658;SDS011;63186;51.204;6.536;2022-11-20T04:22:20;29.63;;;18.03;;
74658;SDS011;63186;51.204;6.536;2022-11-20T04:24:46;26.80;;;16.83;;
74658;SDS011;63186;51.204;6.536;2022-11-20T04:27:11;26.00;;;15.10;;
74658;SDS011;63186;51.204;6.536;2022-11-20T04:29:36;27.00;;;17.37;;
74658;SDS011;63186;51.204;6.536;2022-11-20T04:32:02;26.07;;;14.93;;
74658;SDS011;63186;51.204;6.536;2022-11-20T04:34:27;26.73;;;18.23;;
74658;SDS011;63186;51.204;6.536;2022-11-20T04:36:52;26.60;;;16.27;;
74658;SDS011;63186;51.204;6.536;2022-11-20T04:39:17;26.97;;;15.40;;
74658;SDS011;63186;51.204;6.536;2022-11-20T04:41:42;27.70;;;16.93;;
74658;SDS011;63186;51.204;6.536;2022-11-20T04:44:08;30.67;;;16.87;;
74658;SDS011;63186;51.204;6.536;2022-11-20T04:46:35;30.75;;;18.92;;
74658;SDS011;63186;51.204;6.536;2022-11-20T04:49:02;26.60;;;16.00;;
74658;SDS011;63186;51.204;6.536;2022-11-20T04:51:27;28.73;;;19.65;;
74658;SDS011;63186;51.204;6.536;2022-11-20T04:53:53;28.65;;;17.35;;
74658;SDS011;63186;51.204;6.536;2022-11-20T04:56:18;27.42;;;17.88;;
74658;SDS011;63186;51.204;6.536;2022-11-20T04:58:43;29.23;;;17.87;;
74658;SDS011;63186;51.204;6.536;2022-11-20T05:01:13;31.10;;;19.13;;
74658;SDS011;63186;51.204;6.536;2022-11-20T05:03:43;27.75;;;18.38;;
74658;SDS011;63186;51.204;6.536;2022-11-20T05:06:09;27.02;;;15.40;;
74658;SDS011;63186;51.204;6.536;2022-11-20T05:08:36;25.20;;;15.98;;
74658;SDS011;63186;51.204;6.536;2022-11-20T05:11:03;29.23;;;16.52;;
74658;SDS011;63186;51.204;6.536;2022-11-20T05:13:30;26.90;;;16.42;;
74658;SDS011;63186;51.204;6.536;2022-11-20T05:15:55;31.97;;;18.07;;
74658;SDS011;63186;51.204;6.536;2022-11-20T05:18:25;29.35;;;17.65;;
74658;SDS011;63186;51.204;6.536;2022-11-20T05:20:54;26.93;;;16.07;;
74658;SDS011;63186;51.204;6.536;2022-11-20T05:23:21;25.95;;;16.35;;
74658;SDS011;63186;51.204;6.536;2022-11-20T05:25:46;31.30;;;16.07;;
74658;SDS011;63186;51.204;6.536;2022-11-20T05:28:11;27.90;;;17.37;;
74658;SDS011;63186;51.204;6.536;2022-11-20T05:30:36;28.33;;;17.07;;
74658;SDS011;63186;51.204;6.536;2022-11-20T05:33:02;29.50;;;16.00;;
74658;SDS011;63186;51.204;6.536;2022-11-20T05:35:27;32.20;;;18.20;;
74658;SDS011;63186;51.204;6.536;2022-11-20T05:37:52;32.10;;;16.07;;
74658;SDS011;63186;51.204;6.536;2022-11-20T05:40:17;27.80;;;16.40;;
74658;SDS011;63186;51.204;6.536;2022-11-20T05:42:43;27.50;;;15.97;;
74658;SDS011;63186;51.204;6.536;2022-11-20T05:45:08;28.88;;;17.52;;
74658;SDS011;63186;51.204;6.536;2022-11-20T05:47:34;28.10;;;16.17;;
74658;SDS011;63186;51.204;6.536;2022-11-20T05:50:00;27.77;;;15.38;;
74658;SDS011;63186;51.204;6.536;2022-11-20T05:52:29;26.20;;;15.95;;
74658;SDS011;63186;51.204;6.536;2022-11-20T05:54:54;29.02;;;17.88;;
74658;SDS011;63186;51.204;6.536;2022-11-20T05:57:20;27.88;;;15.57;;
74658;SDS011;63186;51.204;6.536;2022-11-20T05:59:45;30.00;;;16.40;;
74658;SDS011;63186;51.204;6.536;2022-11-20T06:02:11;26.90;;;16.87;;
74658;SDS011;63186;51.204;6.536;2022-11-20T06:04:36;26.20;;;16.17;;
74658;SDS011;63186;51.204;6.536;2022-11-20T06:07:01;29.60;;;16.73;;
74658;SDS011;63186;51.204;6.536;2022-11-20T06:09:26;27.37;;;16.37;;
74658;SDS011;63186;51.204;6.536;2022-11-20T06:11:52;29.57;;;16.67;;
74658;SDS011;63186;51.204;6.536;2022-11-20T06:14:17;28.67;;;17.87;;
74658;SDS011;63186;51.204;6.536;2022-11-20T06:16:42;29.97;;;18.37;;
74658;SDS011;63186;51.204;6.536;2022-11-20T06:19:07;29.73;;;17.10;;
74658;SDS011;63186;51.204;6.536;2022-11-20T06:21:33;28.87;;;17.47;;
74658;SDS011;63186;51.204;6.536;2022-11-20T06:23:58;26.37;;;15.90;;
74658;SDS011;63186;51.204;6.536;2022-11-20T06:26:25;25.60;;;16.10;;
74658;SDS011;63186;51.204;6.536;2022-11-20T06:28:52;29.80;;;16.30;;
74658;SDS011;63186;51.204;6.536;2022-11-20T06:31:19;26.83;;;16.88;;
74658;SDS011;63186;51.204;6.536;2022-11-20T06:33:46;27.95;;;16.42;;
74658;SDS011;63186;51.204;6.536;2022-11-20T06:36:12;28.63;;;16.85;;
74658;SDS011;63186;51.204;6.536;2022-11-20T06:38:39;24.45;;;15.02;;
74658;SDS011;63186;51.204;6.536;2022-11-20T06:41:06;25.77;;;15.35;;
74658;SDS011;63186;51.204;6.536;2022-11-20T06:43:36;26.02;;;15.48;;
74658;SDS011;63186;51.204;6.536;2022-11-20T06:46:01;27.97;;;17.13;;
74658;SDS011;63186;51.204;6.536;2022-11-20T06:48:26;27.10;;;17.13;;
74658;SDS011;63186;51.204;6.536;2022-11-20T06:50:52;28.02;;;15.55;;
74658;SDS011;63186;51.204;6.536;2022-11-20T06:53:18;26.43;;;16.30;;
74658;SDS011;63186;51.204;6.536;2022-11-20T06:55:44;28.95;;;18.58;;
74658;SDS011;63186;51.204;6.536;2022-11-20T06:58:10;30.90;;;17.02;;
74658;SDS011;63186;51.204;6.536;2022-11-20T07:00:36;29.15;;;17.50;;
74658;SDS011;63186;51.204;6.536;2022-11-20T07:03:05;27.10;;;17.40;;
74658;SDS011;63186;51.204;6.536;2022-11-20T07:05:32;27.17;;;16.38;;
74658;SDS011;63186;51.204;6.536;2022-11-20T07:07:57;27.88;;;18.38;;
74658;SDS011;63186;51.204;6.536;2022-11-20T07:10:23;30.00;;;18.60;;
74658;SDS011;63186;51.204;6.536;2022-11-20T07:12:49;33.10;;;20.23;;
74658;SDS011;63186;51.204;6.536;2022-11-20T07:15:15;29.10;;;17.00;;
74658;SDS011;63186;51.204;6.536;2022-11-20T07:17:40;28.57;;;17.67;;
74658;SDS011;63186;51.204;6.536;2022-11-20T07:20:06;27.93;;;17.83;;
74658;SDS011;63186;51.204;6.536;2022-11-20T07:22:31;30.48;;;17.33;;
74658;SDS011;63186;51.204;6.536;2022-11-20T07:24:57;28.87;;;17.37;;
74658;SDS011;63186;51.204;6.536;2022-11-20T07:27:22;30.27;;;17.23;;
74658;SDS011;63186;51.204;6.536;2022-11-20T07:29:47;29.83;;;17.40;;
74658;SDS011;63186;51.204;6.536;2022-11-20T07:32:12;29.27;;;16.73;;
74658;SDS011;63186;51.204;6.536;2022-11-20T07:34:38;30.03;;;18.20;;
74658;SDS011;63186;51.204;6.536;2022-11-20T07:37:03;29.63;;;17.47;;
74658;SDS011;63186;51.204;6.536;2022-11-20T07:39:28;32.07;;;18.37;;
74658;SDS011;63186;51.204;6.536;2022-11-20T07:41:54;28.77;;;18.07;;
74658;SDS011;63186;51.204;6.536;2022-11-20T07:44:19;27.07;;;16.27;;
74658;SDS011;63186;51.204;6.536;2022-11-20T07:46:44;30.17;;;17.97;;
74658;SDS011;63186;51.204;6.536;2022-11-20T07:49:09;28.20;;;17.17;;
74658;SDS011;63186;51.204;6.536;2022-11-20T07:51:34;30.23;;;18.40;;
74658;SDS011;63186;51.204;6.536;2022-11-20T07:54:00;27.50;;;16.03;;
74658;SDS011;63186;51.204;6.536;2022-11-20T07:56:25;29.77;;;17.40;;
74658;SDS011;63186;51.204;6.536;2022-11-20T07:58:50;32.07;;;19.10;;
74658;SDS011;63186;51.204;6.536;2022-11-20T08:01:16;28.58;;;17.98;;
74658;SDS011;63186;51.204;6.536;2022-11-20T08:03:41;25.47;;;16.47;;
74658;SDS011;63186;51.204;6.536;2022-11-20T08:06:06;29.50;;;16.77;;
74658;SDS011;63186;51.204;6.536;2022-11-20T08:08:32;28.52;;;16.30;;
74658;SDS011;63186;51.204;6.536;2022-11-20T08:10:57;27.37;;;16.80;;
74658;SDS011;63186;51.204;6.536;2022-11-20T08:13:41;30.08;;;18.73;;
74658;SDS011;63186;51.204;6.536;2022-11-20T08:16:25;26.52;;;17.48;;
74658;SDS011;63186;51.204;6.536;2022-11-20T08:18:50;30.97;;;17.57;;
74658;SDS011;63186;51.204;6.536;2022-11-20T08:21:15;27.93;;;17.13;;
74658;SDS011;63186;51.204;6.536;2022-11-20T08:23:41;28.60;;;16.57;;
74658;SDS011;63186;51.204;6.536;2022-11-20T08:26:06;30.00;;;18.17;;
74658;SDS011;63186;51.204;6.536;2022-11-20T08:28:31;29.10;;;17.13;;
74658;SDS011;63186;51.204;6.536;2022-11-20T08:31:00;28.90;;;17.73;;
74658;SDS011;63186;51.204;6.536;2022-11-20T08:33:25;31.08;;;17.10;;
74658;SDS011;63186;51.204;6.536;2022-11-20T08:35:50;34.00;;;19.10;;
74658;SDS011;63186;51.204;6.536;2022-11-20T08:38:16;34.10;;;20.17;;
74658;SDS011;63186;51.204;6.536;2022-11-20T08:40:41;28.47;;;17.37;;
74658;SDS011;63186;51.204;6.536;2022-11-20T08:43:26;25.35;;;15.60;;
74658;SDS011;63186;51.204;6.536;2022-11-20T08:45:51;25.57;;;15.03;;
74658;SDS011;63186;51.204;6.536;2022-11-20T08:48:17;29.03;;;15.37;;
74658;SDS011;63186;51.204;6.536;2022-11-20T08:50:42;28.40;;;17.07;;
74658;SDS011;63186;51.204;6.536;2022-11-20T08:53:07;27.47;;;16.53;;
74658;SDS011;63186;51.204;6.536;2022-11-20T08:55:32;26.67;;;16.90;;
74658;SDS011;63186;51.204;6.536;2022-11-20T08:58:03;26.88;;;16.20;;
74658;SDS011;63186;51.204;6.536;2022-11-20T09:00:29;27.88;;;17.20;;
74658;SDS011;63186;51.204;6.536;2022-11-20T09:02:55;24.83;;;14.97;;
74658;SDS011;63186;51.204;6.536;2022-11-20T09:05:20;27.27;;;16.30;;
74658;SDS011;63186;51.204;6.536;2022-11-20T09:07:45;28.25;;;15.38;;
74658;SDS011;63186;51.204;6.536;2022-11-20T09:10:11;26.57;;;14.43;;
74658;SDS011;63186;51.204;6.536;2022-11-20T09:12:36;27.60;;;16.05;;
74658;SDS011;63186;51.204;6.536;2022-11-20T09:15:01;29.57;;;17.63;;
74658;SDS011;63186;51.204;6.536;2022-11-20T09:17:27;30.60;;;17.37;;
74658;SDS011;63186;51.204;6.536;2022-11-20T09:19:52;31.27;;;18.03;;
74658;SDS011;63186;51.204;6.536;2022-11-20T09:22:17;27.15;;;15.25;;
74658;SDS011;63186;51.204;6.536;2022-11-20T09:24:43;29.90;;;17.43;;
74658;SDS011;63186;51.204;6.536;2022-11-20T09:27:08;33.37;;;17.50;;
74658;SDS011;63186;51.204;6.536;2022-11-20T09:29:33;37.67;;;19.50;;
74658;SDS011;63186;51.204;6.536;2022-11-20T09:31:58;29.20;;;17.37;;
74658;SDS011;63186;51.204;6.536;2022-11-20T09:34:24;30.55;;;17.65;;
74658;SDS011;63186;51.204;6.536;2022-11-20T09:36:49;33.80;;;18.20;;
74658;SDS011;63186;51.204;6.536;2022-11-20T09:39:14;27.00;;;16.00;;
74658;SDS011;63186;51.204;6.536;2022-11-20T09:41:51;30.90;;;17.55;;
74658;SDS011;63186;51.204;6.536;2022-11-20T09:47:08;34.08;;;17.40;;
74658;SDS011;63186;51.204;6.536;2022-11-20T09:52:46;34.20;;;18.35;;
74658;SDS011;63186;51.204;6.536;2022-11-20T09:55:14;32.60;;;17.95;;
74658;SDS011;63186;51.204;6.536;2022-11-20T09:57:42;30.00;;;17.05;;
74658;SDS011;63186;51.204;6.536;2022-11-20T10:00:11;33.33;;;18.95;;
74658;SDS011;63186;51.204;6.536;2022-11-20T10:05:34;31.90;;;16.77;;
74658;SDS011;63186;51.204;6.536;2022-11-20T10:08:14;31.73;;;16.95;;
74658;SDS011;63186;51.204;6.536;2022-11-20T10:10:49;33.67;;;17.23;;
74658;SDS011;63186;51.204;6.536;2022-11-20T10:16:08;36.50;;;16.38;;
74658;SDS011;63186;51.204;6.536;2022-11-20T10:21:53;38.88;;;19.02;;
74658;SDS011;63186;51.204;6.536;2022-11-20T10:27:05;37.22;;;18.40;;
74658;SDS011;63186;51.204;6.536;2022-11-20T10:29:32;33.50;;;17.15;;
74658;SDS011;63186;51.204;6.536;2022-11-20T10:32:01;37.35;;;17.75;;
74658;SDS011;63186;51.204;6.536;2022-11-20T10:37:23;31.95;;;18.15;;
74658;SDS011;63186;51.204;6.536;2022-11-20T10:43:01;35.75;;;17.83;;
74658;SDS011;63186;51.204;6.536;2022-11-20T10:48:16;34.63;;;16.52;;
74658;SDS011;63186;51.204;6.536;2022-11-20T10:53:40;34.65;;;15.48;;
74658;SDS011;63186;51.204;6.536;2022-11-20T10:56:19;35.63;;;15.32;;
74658;SDS011;63186;51.204;6.536;2022-11-20T10:59:00;30.20;;;14.68;;
74658;SDS011;63186;51.204;6.536;2022-11-20T11:01:40;31.88;;;15.93;;
74658;SDS011;63186;51.204;6.536;2022-11-20T11:04:11;30.35;;;13.32;;
74658;SDS011;63186;51.204;6.536;2022-11-20T11:07:31;27.08;;;14.07;;
74658;SDS011;63186;51.204;6.536;2022-11-20T11:09:53;29.63;;;12.77;;
74658;SDS011;63186;51.204;6.536;2022-11-20T11:12:21;26.77;;;11.93;;
74658;SDS011;63186;51.204;6.536;2022-11-20T11:17:28;29.27;;;13.20;;
74658;SDS011;63186;51.204;6.536;2022-11-20T11:20:18;27.92;;;13.23;;
74658;SDS011;63186;51.204;6.536;2022-11-20T11:22:50;28.27;;;13.43;;
74658;SDS011;63186;51.204;6.536;2022-11-20T11:25:18;26.58;;;12.70;;
74658;SDS011;63186;51.204;6.536;2022-11-20T11:27:47;29.45;;;12.93;;
74658;SDS011;63186;51.204;6.536;2022-11-20T11:30:15;31.88;;;15.73;;
74658;SDS011;63186;51.204;6.536;2022-11-20T11:32:41;28.40;;;14.05;;
74658;SDS011;63186;51.204;6.536;2022-11-20T11:35:27;24.17;;;12.40;;
74658;SDS011;63186;51.204;6.536;2022-11-20T11:37:54;23.10;;;12.15;;
74658;SDS011;63186;51.204;6.536;2022-11-20T11:40:28;27.75;;;13.65;;
74658;SDS011;63186;51.204;6.536;2022-11-20T11:42:57;26.77;;;12.20;;
74658;SDS011;63186;51.204;6.536;2022-11-20T11:45:26;27.33;;;13.68;;
74658;SDS011;63186;51.204;6.536;2022-11-20T11:47:53;26.60;;;12.23;;
74658;SDS011;63186;51.204;6.536;2022-11-20T11:50:22;31.10;;;16.08;;
74658;SDS011;63186;51.204;6.536;2022-11-20T12:04:07;28.90;;;15.50;;
74658;SDS011;63186;51.204;6.536;2022-11-20T12:06:44;25.67;;;14.25;;
74658;SDS011;63186;51.204;6.536;2022-11-20T12:09:13;28.23;;;14.38;;
74658;SDS011;63186;51.204;6.536;2022-11-20T12:11:41;26.08;;;12.98;;
74658;SDS011;63186;51.204;6.536;2022-11-20T12:14:15;26.85;;;14.13;;
74658;SDS011;63186;51.204;6.536;2022-11-20T12:16:48;24.13;;;12.93;;
74658;SDS011;63186;51.204;6.536;2022-11-20T12:19:15;29.45;;;14.43;;
74658;SDS011;63186;51.204;6.536;2022-11-20T12:21:49;25.15;;;12.57;;
74658;SDS011;63186;51.204;6.536;2022-11-20T12:43:23;22.10;;;11.80;;
74658;SDS011;63186;51.204;6.536;2022-11-20T12:46:15;26.83;;;12.68;;
74658;SDS011;63186;51.204;6.536;2022-11-20T12:57:09;21.63;;;11.67;;
74658;SDS011;63186;51.204;6.536;2022-11-20T12:59:48;24.70;;;13.02;;
74658;SDS011;63186;51.204;6.536;2022-11-20T13:05:27;26.83;;;14.88;;
74658;SDS011;63186;51.204;6.536;2022-11-20T13:08:14;27.83;;;13.30;;
74658;SDS011;63186;51.204;6.536;2022-11-20T13:10:49;30.67;;;15.20;;
74658;SDS011;63186;51.204;6.536;2022-11-20T13:16:23;27.85;;;15.18;;
74658;SDS011;63186;51.204;6.536;2022-11-20T13:19:00;28.17;;;14.48;;
74658;SDS011;63186;51.204;6.536;2022-11-20T13:21:40;23.88;;;11.65;;
74658;SDS011;63186;51.204;6.536;2022-11-20T13:24:20;26.30;;;13.05;;
74658;SDS011;63186;51.204;6.536;2022-11-20T13:26:48;22.75;;;10.15;;
74658;SDS011;63186;51.204;6.536;2022-11-20T13:29:24;33.53;;;15.10;;
74658;SDS011;63186;51.204;6.536;2022-11-20T13:31:49;26.98;;;14.13;;
74658;SDS011;63186;51.204;6.536;2022-11-20T13:34:25;36.23;;;15.07;;
74658;SDS011;63186;51.204;6.536;2022-11-20T13:36:52;33.25;;;15.27;;
74658;SDS011;63186;51.204;6.536;2022-11-20T13:39:29;24.17;;;12.10;;
74658;SDS011;63186;51.204;6.536;2022-11-20T13:41:57;26.30;;;14.00;;
74658;SDS011;63186;51.204;6.536;2022-11-20T13:44:36;24.90;;;12.48;;
74658;SDS011;63186;51.204;6.536;2022-11-20T13:47:04;24.90;;;12.02;;
74658;SDS011;63186;51.204;6.536;2022-11-20T13:49:47;30.02;;;14.23;;
74658;SDS011;63186;51.204;6.536;2022-11-20T13:56:05;26.48;;;13.68;;
74658;SDS011;63186;51.204;6.536;2022-11-20T14:01:23;26.73;;;12.82;;
74658;SDS011;63186;51.204;6.536;2022-11-20T14:03:50;27.73;;;13.05;;
74658;SDS011;63186;51.204;6.536;2022-11-20T14:06:24;23.75;;;12.73;;
74658;SDS011;63186;51.204;6.536;2022-11-20T14:09:10;22.35;;;11.68;;
74658;SDS011;63186;51.204;6.536;2022-11-20T14:11:49;27.98;;;13.73;;
74658;SDS011;63186;51.204;6.536;2022-11-20T14:14:15;30.50;;;13.93;;
74658;SDS011;63186;51.204;6.536;2022-11-20T14:16:43;30.42;;;15.45;;
74658;SDS011;63186;51.204;6.536;2022-11-20T14:19:28;25.33;;;15.43;;
74658;SDS011;63186;51.204;6.536;2022-11-20T14:22:08;28.13;;;14.35;;
74658;SDS011;63186;51.204;6.536;2022-11-20T14:24:48;27.48;;;14.90;;
74658;SDS011;63186;51.204;6.536;2022-11-20T14:27:25;32.50;;;15.20;;
74658;SDS011;63186;51.204;6.536;2022-11-20T14:29:51;33.08;;;15.32;;
74658;SDS011;63186;51.204;6.536;2022-11-20T14:32:17;28.13;;;13.38;;
74658;SDS011;63186;51.204;6.536;2022-11-20T14:34:45;28.38;;;14.75;;
74658;SDS011;63186;51.204;6.536;2022-11-20T14:37:12;28.15;;;13.75;;
74658;SDS011;63186;51.204;6.536;2022-11-20T14:39:47;32.20;;;14.15;;
74658;SDS011;63186;51.204;6.536;2022-11-20T14:42:15;32.30;;;15.43;;
74658;SDS011;63186;51.204;6.536;2022-11-20T14:44:42;30.48;;;13.35;;
74658;SDS011;63186;51.204;6.536;2022-11-20T14:47:08;29.30;;;13.65;;
74658;SDS011;63186;51.204;6.536;2022-11-20T14:49:37;27.58;;;15.23;;
74658;SDS011;63186;51.204;6.536;2022-11-20T14:52:13;27.88;;;13.95;;
74658;SDS011;63186;51.204;6.536;2022-11-20T14:54:43;26.48;;;13.82;;
74658;SDS011;63186;51.204;6.536;2022-11-20T14:57:18;30.13;;;17.20;;
74658;SDS011;63186;51.204;6.536;2022-11-20T14:59:51;25.90;;;13.30;;
74658;SDS011;63186;51.204;6.536;2022-11-20T15:02:17;26.95;;;13.93;;
74658;SDS011;63186;51.204;6.536;2022-11-20T15:04:49;33.00;;;14.02;;
74658;SDS011;63186;51.204;6.536;2022-11-20T15:07:25;26.55;;;13.93;;
74658;SDS011;63186;51.204;6.536;2022-11-20T15:10:04;27.00;;;14.88;;
74658;SDS011;63186;51.204;6.536;2022-11-20T15:12:32;27.02;;;15.00;;
74658;SDS011;63186;51.204;6.536;2022-11-20T15:15:00;28.80;;;14.13;;
74658;SDS011;63186;51.204;6.536;2022-11-20T15:17:27;26.65;;;14.13;;
74658;SDS011;63186;51.204;6.536;2022-11-20T15:19:53;28.85;;;13.85;;
74658;SDS011;63186;51.204;6.536;2022-11-20T15:22:19;28.40;;;12.55;;
74658;SDS011;63186;51.204;6.536;2022-11-20T15:24:45;28.70;;;14.67;;
74658;SDS011;63186;51.204;6.536;2022-11-20T15:27:10;26.00;;;13.20;;
74658;SDS011;63186;51.204;6.536;2022-11-20T15:29:36;27.67;;;13.63;;
74658;SDS011;63186;51.204;6.536;2022-11-20T15:32:01;32.92;;;14.98;;
74658;SDS011;63186;51.204;6.536;2022-11-20T15:34:26;33.00;;;16.43;;
74658;SDS011;63186;51.204;6.536;2022-11-20T15:36:52;28.75;;;11.20;;
74658;SDS011;63186;51.204;6.536;2022-11-20T15:39:19;32.72;;;15.10;;
74658;SDS011;63186;51.204;6.536;2022-11-20T15:41:45;28.63;;;14.15;;
74658;SDS011;63186;51.204;6.536;2022-11-20T15:44:10;32.63;;;15.00;;
74658;SDS011;63186;51.204;6.536;2022-11-20T15:46:36;27.38;;;15.80;;
74658;SDS011;63186;51.204;6.536;2022-11-20T15:49:05;26.15;;;13.07;;
74658;SDS011;63186;51.204;6.536;2022-11-20T15:51:33;25.23;;;12.48;;
74658;SDS011;63186;51.204;6.536;2022-11-20T15:53:59;30.38;;;13.93;;
74658;SDS011;63186;51.204;6.536;2022-11-20T15:56:26;28.50;;;13.07;;